ADDS METAR Data INFO
IDs: Format: Raw Decoded Include TAF

Data at: 0857 UTC 22 Feb 2018

KJVW 220855Z AUTO 16005KT 5SM BR SCT037 SCT045 22/20 A3022 RMK AO2 LTG DSNT SW-N
KJVW 220835Z AUTO 17004KT 5SM BR CLR 22/21 A3022 RMK AO2 LTG DSNT W-N
KJVW 220815Z AUTO 16005KT 5SM BR FEW041 FEW047 22/21 A3022 RMK AO2
KJVW 220755Z AUTO 16006KT 5SM BR SCT045 21/21 A3022 RMK AO2 LTG DSNT N AND NW
KJVW 220735Z AUTO 15006KT 5SM BR SCT046 21/20 A3022 RMK AO2
KJVW 220715Z AUTO 15005KT 5SM BR FEW038 21/20 A3022 RMK AO2
KJVW 220655Z AUTO 15005KT 5SM BR CLR 21/20 A3021 RMK AO2 LTG DSNT W-N
KJVW 220635Z AUTO 15005G10KT 5SM BR CLR 21/20 A3021 RMK AO2 LTG DSNT W AND NW
KJVW 220615Z AUTO 15007KT 6SM BR CLR 21/21 A3020 RMK AO2 LTG DSNT N AND NW
KJVW 220555Z AUTO 16011KT 5SM BR CLR 22/21 A3020 RMK AO2
KJVW 220535Z AUTO 15008G14KT 5SM BR CLR 21/21 A3020 RMK AO2 LTG DSNT N AND NW
KJVW 220515Z AUTO 15008KT 5SM BR CLR 21/21 A3019 RMK AO2 LTG DSNT N AND NW
KJVW 220455Z AUTO 14007G14KT 6SM BR CLR 21/21 A3019 RMK AO2
KJVW 220435Z AUTO 15006KT 6SM BR CLR 19/19 A3020 RMK AO2
KJVW 220415Z AUTO 10004KT 3/4SM BR VV005 16/16 A3020 RMK AO2
KJVW 220355Z AUTO 00000KT 6SM BR FEW034 17/17 A3020 RMK AO2
KJVW 220035Z AUTO VRB04KT 9SM FEW017 SCT040 SCT048 17/17 A3017 RMK AO2
KJVW 220015Z AUTO 00000KT 10SM FEW004 BKN018 BKN042 17/17 A3017 RMK AO2 LTG DSNT ALQDS
KJVW 212355Z AUTO 00000KT 10SM SCT004 BKN018 BKN037 17/17 A3017 RMK AO2 LTG DSNT E AND SW
KJVW 212335Z AUTO 00000KT 10SM VCTS SCT003 SCT010 BKN021 17/17 A3018 RMK AO2 LTG DSNT NE-S
KJVW 212315Z AUTO 33006KT 2SM VCTS RA SCT001 BKN010 OVC020 17/17 A3016 RMK AO2 LTG DSNT ALQDS
KJVW 212255Z AUTO 32008G13KT 1/2SM +TSRA BKN001 OVC010 17/17 A3016 RMK AO2 LTG DSNT ALQDS
KJVW 212235Z AUTO 31011G19KT 2SM VCTS RA FEW011 SCT030 BKN044 18/17 A3015 RMK AO2 LTG DSNT ALQDS
KJVW 212215Z AUTO 29014G21KT 260V320 8SM FEW048 SCT055 25/17 A3013 RMK AO2
KJVW 212155Z AUTO 17012G22KT 9SM CLR 27/18 A3010 RMK AO2 LTG DSNT ALQDS
KJVW 212135Z AUTO 15015G30KT 120V180 9SM CLR 27/18 A3008 RMK AO2 LTG DSNT N AND S
KJVW 212115Z AUTO 15012KT 7SM FEW050 FEW065 27/18 A3009 RMK AO2 LTG DSNT SW AND NW
KJVW 212055Z AUTO 18008G15KT 3SM HZ FEW002 FEW012 FEW050 27/18 A3010 RMK AO2 LTG DSNT SW AND W
KJVW 212035Z AUTO 16014KT 8SM CLR 28/17 A3011 RMK AO2
KJVW 212015Z AUTO 17010G21KT 9SM VCTS CLR 28/17 A3011 RMK AO2 LTG DSNT N AND NW
KJVW 211955Z AUTO 16013G22KT 8SM FEW048 FEW090 28/18 A3011 RMK AO2 LTG DSNT NW
KJVW 211935Z AUTO 14013G21KT 8SM FEW049 FEW055 28/18 A3012 RMK AO2 LTG DSNT W AND NW
KJVW 211915Z AUTO 15010G21KT 8SM FEW047 SCT055 SCT075 29/18 A3012 RMK AO2
KJVW 211855Z AUTO 17016KT 8SM FEW046 FEW055 FEW075 28/18 A3014 RMK AO2
KJVW 211835Z AUTO 13013G20KT 9SM FEW044 SCT055 28/18 A3016 RMK AO2
KJVW 211815Z AUTO 17014G20KT 9SM SCT044 SCT050 SCT065 28/18 A3017 RMK AO2 LTG DSNT W AND NW
KJVW 211755Z AUTO 17011G18KT 140V200 8SM FEW037 FEW045 SCT055 28/19 A3018 RMK AO2
KJVW 211735Z AUTO 15010G19KT 6SM HZ SCT037 SCT045 SCT055 28/19 A3019 RMK AO2
KJVW 211715Z AUTO 14013G20KT 8SM FEW034 SCT042 SCT055 28/19 A3019 RMK AO2
KJVW 211655Z AUTO 16012KT 8SM FEW030 SCT036 SCT042 27/19 A3021 RMK AO2
KJVW 211635Z AUTO 17015G20KT 7SM FEW029 SCT035 26/19 A3022 RMK AO2
KJVW 211615Z AUTO 16013G19KT 6SM HZ FEW024 SCT031 SCT039 26/20 A3022 RMK AO2
KJVW 211555Z AUTO 15010G18KT 7SM FEW022 SCT029 SCT033 25/20 A3023 RMK AO2
KJVW 211535Z AUTO 15008G17KT 7SM SCT020 BKN025 BKN031 25/21 A3023 RMK AO2
KJVW 211515Z AUTO 16009G16KT 7SM SCT017 BKN026 BKN085 24/21 A3023 RMK AO2
KJVW 211455Z AUTO 15008G15KT 7SM SCT014 24/21 A3023 RMK AO2
KJVW 211435Z AUTO 5SM HZ SCT012 23/21 A3023 RMK AO2
KJVW 211415Z AUTO 15008G17KT 6SM HZ FEW011 23/21 A3022 RMK AO2
KJVW 211355Z AUTO 6SM BR SCT011 22/21 A3022 RMK AO2
KJVW 211335Z AUTO 5SM BR FEW010 22/21 A3022 RMK AO2
KJVW 211315Z AUTO 15006G11KT 5SM BR CLR 22/21 A3022 RMK AO2
KJVW 211255Z AUTO 14006G11KT 6SM BR CLR 21/20 A3022 RMK AO2
KJVW 211235Z AUTO 15007G13KT 6SM BR CLR 21/20 A3021 RMK AO2
KJVW 210755Z AUTO 15007KT 6SM BR BKN014 BKN019 22/20 A3018 RMK AO2
KJVW 210735Z AUTO 15007G16KT 7SM BKN015 BKN021 22/20 A3018 RMK AO2
KJVW 210715Z AUTO 15008G14KT 6SM BR BKN016 BKN022 22/20 A3018 RMK AO2
KJVW 210655Z AUTO 15006KT 7SM FEW018 FEW024 22/20 A3017 RMK AO2
KJVW 210635Z AUTO 16007KT 7SM FEW022 22/20 A3018 RMK AO2
KJVW 210615Z AUTO 15007KT 9SM CLR 22/20 A3017 RMK AO2
KJVW 210555Z AUTO 15007G13KT 7SM CLR 22/20 A3017 RMK AO2